Time;durP1;ratioP1;P1;durP2;ratioP2;P2;SDS_P1;SDS_P2;PMS_P1;PMS_P2;Temp;Humidity;BMP_temperature;BMP_pressure;BME280_temperature;BME280_humidity;BME280_pressure;Samples;Min_cycle;Max_cycle;Signal;HPM_P1;HPM_P2
2022/11/11 00:07:25;;;;;;;1999.90;999.90;;;8.80;99.90;;;;;;6652041;89;20196;-79
2022/11/11 00:27:45;;;;;;;1999.90;999.90;;;8.60;99.90;;;;;;6652912;89;20688;-79
2022/11/11 00:38:44;;;;;;;1999.90;999.90;;;8.50;99.90;;;;;;6675744;76;20274;-78
2022/11/11 00:59:06;;;;;;;1999.90;999.90;;;8.50;99.90;;;;;;6720306;88;20171;-77
2022/11/11 01:09:07;;;;;;;1999.90;999.90;;;8.40;99.90;;;;;;6722240;88;20230;-78
2022/11/11 01:19:07;;;;;;;1999.90;999.90;;;8.50;99.90;;;;;;6721006;88;20645;-78
2022/11/11 01:29:08;;;;;;;1999.90;999.90;;;8.50;99.90;;;;;;6719727;88;20245;-79
2022/11/11 01:39:09;;;;;;;1999.90;999.90;;;8.60;99.90;;;;;;6719693;88;20246;-79
2022/11/11 01:49:25;;;;;;;1999.90;999.90;;;8.50;99.90;;;;;;6718840;88;20194;-78
2022/11/11 01:59:27;;;;;;;;;;;8.40;99.90;;;;;;6722046;88;20277;-78
2022/11/11 02:09:28;;;;;;;1999.90;999.90;;;8.20;99.90;;;;;;6721985;88;20091;-80
2022/11/11 02:19:44;;;;;;;1999.90;999.90;;;8.00;99.90;;;;;;6718137;88;20228;-79
2022/11/11 02:29:47;;;;;;;1999.90;999.90;;;8.00;99.90;;;;;;6718691;88;20402;-79
2022/11/11 02:39:51;;;;;;;1999.90;999.90;;;7.80;99.90;;;;;;6719310;88;20352;-80
2022/11/11 02:49:52;;;;;;;1999.90;999.90;;;7.70;99.90;;;;;;6717780;88;20220;-79
2022/11/11 02:59:52;;;;;;;1999.90;999.90;;;7.60;99.90;;;;;;6717194;88;20727;-79
2022/11/11 03:09:53;;;;;;;1999.90;999.90;;;7.60;99.90;;;;;;6718417;88;20205;-79
2022/11/11 03:21:03;;;;;;;1999.90;999.90;;;7.70;99.90;;;;;;6721136;88;20201;-79
2022/11/11 03:30:14;;;;;;;1999.90;999.90;;;7.70;99.90;;;;;;6720487;88;20178;-80
2022/11/11 03:40:14;;;;;;;1999.90;999.90;;;7.50;99.90;;;;;;6720707;88;20227;-79
2022/11/11 03:50:15;;;;;;;1999.90;999.90;;;7.50;99.90;;;;;;6720832;88;20253;-79
2022/11/11 04:00:22;;;;;;;1999.90;999.90;;;7.70;99.90;;;;;;6718041;88;20525;-79
2022/11/11 04:10:22;;;;;;;1999.90;999.90;;;7.80;99.90;;;;;;6720701;88;20195;-80
2022/11/11 04:30:42;;;;;;;1999.90;999.90;;;7.80;99.90;;;;;;6723668;88;20176;-78
2022/11/11 04:51:02;;;;;;;1999.90;999.90;;;7.90;99.90;;;;;;6719990;88;20269;-78
2022/11/11 05:01:03;;;;;;;1999.90;999.90;;;8.00;99.90;;;;;;6723389;88;20708;-77
2022/11/11 05:11:04;;;;;;;1999.90;999.90;;;7.90;99.90;;;;;;6723328;88;20633;-77
2022/11/11 05:21:19;;;;;;;1999.90;999.90;;;7.90;99.90;;;;;;6722858;88;20189;-76
2022/11/11 05:31:20;;;;;;;1999.90;999.90;;;7.90;99.90;;;;;;6722629;88;20277;-77
2022/11/11 05:41:21;;;;;;;1999.90;999.90;;;8.00;99.90;;;;;;6721906;88;20189;-76
2022/11/11 05:51:26;;;;;;;1999.90;999.90;;;7.90;99.90;;;;;;6720623;88;20184;-78
2022/11/11 06:01:27;;;;;;;1999.90;999.90;;;7.80;99.90;;;;;;6720196;88;20181;-80
2022/11/11 06:11:28;;;;;;;1999.90;999.90;;;7.80;99.90;;;;;;6721987;88;20239;-79
2022/11/11 06:21:30;;;;;;;1999.90;999.90;;;7.80;99.90;;;;;;6732045;88;20235;-78
2022/11/11 06:31:31;;;;;;;1999.90;999.90;;;7.70;99.90;;;;;;6721470;88;20256;-79
2022/11/11 06:41:31;;;;;;;1999.90;999.90;;;7.80;99.90;;;;;;6717170;88;20264;-79
2022/11/11 06:51:32;;;;;;;1999.90;999.90;;;7.80;99.90;;;;;;6725968;88;20181;-80
2022/11/11 07:01:32;;;;;;;1999.90;999.90;;;7.80;99.90;;;;;;6727173;88;20243;-80
2022/11/11 07:11:33;;;;;;;1999.90;999.90;;;7.90;99.90;;;;;;6727210;88;20193;-81
2022/11/11 07:21:33;;;;;;;1999.90;999.90;;;7.90;99.90;;;;;;6726703;88;20319;-79
2022/11/11 07:31:34;;;;;;;1999.90;999.90;;;8.00;99.90;;;;;;6722784;88;20244;-80
2022/11/11 07:41:35;;;;;;;1999.90;999.90;;;8.10;99.90;;;;;;6727339;88;20198;-80
2022/11/11 07:51:35;;;;;;;1999.90;999.90;;;8.10;99.90;;;;;;6726805;88;20687;-80
2022/11/11 08:01:36;;;;;;;1999.90;999.90;;;8.20;99.90;;;;;;6727743;88;20703;-78
2022/11/11 08:21:55;;;;;;;1999.90;999.90;;;8.50;99.90;;;;;;6728620;88;20170;-82
2022/11/11 08:31:56;;;;;;;1999.90;999.90;;;8.80;99.90;;;;;;6727546;88;20685;-80
2022/11/11 08:41:57;;;;;;;1999.90;999.90;;;9.00;99.90;;;;;;6726858;88;20713;-80
2022/11/11 08:51:57;;;;;;;1999.90;999.90;;;9.20;99.90;;;;;;6726845;88;20177;-82
2022/11/11 09:01:58;;;;;;;1999.90;999.90;;;9.30;99.90;;;;;;6726962;88;20206;-80
2022/11/11 09:11:58;;;;;;;1999.90;999.90;;;9.50;99.90;;;;;;6724391;88;20189;-80
2022/11/11 09:21:59;;;;;;;1999.90;999.90;;;9.90;99.90;;;;;;6724834;88;20754;-81
2022/11/11 09:31:59;;;;;;;1999.90;999.90;;;10.20;99.90;;;;;;6723988;88;20216;-80
2022/11/11 09:42:29;;;;;;;1999.90;999.90;;;10.40;99.90;;;;;;6723602;88;20328;-80
2022/11/11 09:52:48;;;;;;;1999.90;999.90;;;10.50;99.90;;;;;;6724130;88;20204;-80
2022/11/11 10:02:58;;;;;;;1999.90;999.90;;;10.90;99.90;;;;;;6724479;88;20353;-81
2022/11/11 10:12:59;;;;;;;1999.90;999.90;;;11.20;99.90;;;;;;6725667;88;20321;-81
2022/11/11 10:23:08;;;;;;;1999.90;999.90;;;12.00;99.90;;;;;;6726600;88;20266;-81
2022/11/11 10:33:18;;;;;;;1999.90;999.90;;;12.40;99.90;;;;;;6727609;88;20283;-81
2022/11/11 10:43:22;;;;;;;1999.90;999.90;;;13.10;99.90;;;;;;6728525;88;20228;-81
2022/11/11 11:03:35;;;;;;;1999.90;999.90;;;12.90;99.90;;;;;;6696231;88;20233;-82
2022/11/11 11:13:54;;;;;;;1999.90;999.90;;;13.50;99.90;;;;;;6744679;88;20680;-79
2022/11/11 11:23:54;;;;;;;1999.90;999.90;;;13.80;99.90;;;;;;6755082;88;20181;-82
2022/11/11 11:33:56;;;;;;;1999.90;999.90;;;14.10;99.90;;;;;;6752238;88;20256;-81
2022/11/11 11:43:56;;;;;;;1999.90;999.90;;;14.30;99.90;;;;;;6752794;88;20234;-80
2022/11/11 11:54:12;;;;;;;1999.90;999.90;;;13.90;99.90;;;;;;6750902;88;20216;-81
2022/11/11 12:04:18;;;;;;;1999.90;999.90;;;14.60;99.90;;;;;;6751372;88;20192;-80
2022/11/11 12:14:37;;;;;;;1999.90;999.90;;;14.60;99.90;;;;;;6750140;88;20198;-80
2022/11/11 12:24:51;;;;;;;1999.90;999.90;;;14.80;99.90;;;;;;6747138;88;20266;-80
2022/11/11 12:35:16;;;;;;;1999.90;999.90;;;15.00;99.90;;;;;;6752338;88;20207;-78
2022/11/11 12:45:20;;;;;;;1999.90;999.90;;;16.30;99.90;;;;;;6758479;88;20254;-79
2022/11/11 12:55:39;;;;;;;1999.90;999.90;;;17.10;99.90;;;;;;6757043;88;20214;-80
2022/11/11 13:06:10;;;;;;;1999.90;999.90;;;17.60;99.90;;;;;;6751275;88;20255;-79
2022/11/11 13:16:11;;;;;;;1999.90;999.90;;;17.40;99.90;;;;;;6759761;88;20847;-80
2022/11/11 13:26:38;;;;;;;1999.90;999.90;;;17.90;99.90;;;;;;6749318;88;20309;-80
2022/11/11 13:36:47;;;;;;;1999.90;999.90;;;18.30;99.90;;;;;;6760717;88;20279;-79
2022/11/11 13:46:48;;;;;;;1999.90;999.90;;;18.90;99.90;;;;;;6757916;87;20605;-78
2022/11/11 13:56:50;;;;;;;1999.90;999.90;;;18.40;99.90;;;;;;6753396;88;20236;-79
2022/11/11 14:06:52;;;;;;;1999.90;999.90;;;18.30;99.90;;;;;;6755040;88;20266;-79
2022/11/11 14:16:53;;;;;;;1999.90;999.90;;;17.80;99.90;;;;;;6746428;88;20662;-79
2022/11/11 14:26:59;;;;;;;1999.90;999.90;;;17.60;99.90;;;;;;6756349;88;20229;-79
2022/11/11 14:37:13;;;;;;;1999.90;999.90;;;16.60;99.90;;;;;;6753207;88;20187;-78
2022/11/11 14:47:14;;;;;;;1999.90;999.90;;;16.20;99.90;;;;;;6755112;88;20271;-80
2022/11/11 14:57:23;;;;;;;1999.90;999.90;;;15.90;99.90;;;;;;6764246;88;20210;-78
2022/11/11 15:07:42;;;;;;;1999.90;999.90;;;15.70;99.90;;;;;;6755449;88;20323;-79
2022/11/11 15:17:59;;;;;;;1999.90;999.90;;;15.50;99.90;;;;;;6755316;88;20719;-79
2022/11/11 15:28:28;;;;;;;1999.90;999.90;;;14.90;99.90;;;;;;6754047;88;20197;-77
2022/11/11 15:38:29;;;;;;;1999.90;999.90;;;14.40;99.90;;;;;;6756648;88;20698;-78
2022/11/11 15:48:41;;;;;;;1999.90;999.90;;;14.10;99.90;;;;;;6759038;87;20222;-79
2022/11/11 15:58:42;;;;;;;1999.90;999.90;;;13.60;99.90;;;;;;6761228;88;20183;-79
2022/11/11 16:08:44;;;;;;;1999.90;999.90;;;13.40;99.90;;;;;;6753934;88;20707;-79
2022/11/11 16:18:51;;;;;;;1999.90;999.90;;;13.10;99.90;;;;;;6749591;88;20181;-78
2022/11/11 16:28:53;;;;;;;1999.90;999.90;;;12.90;99.90;;;;;;6763825;87;20246;-80
2022/11/11 16:38:54;;;;;;;1999.90;999.90;;;12.70;99.90;;;;;;6741364;88;20176;-77
2022/11/11 16:48:55;;;;;;;1999.90;999.90;;;12.60;99.90;;;;;;6750845;87;20202;-79
2022/11/11 16:59:02;;;;;;;1999.90;999.90;;;12.50;99.90;;;;;;6740767;88;20209;-77
2022/11/11 17:09:27;;;;;;;1999.90;999.90;;;12.30;99.90;;;;;;6747566;88;20200;-78
2022/11/11 17:19:31;;;;;;;1999.90;999.90;;;12.10;99.90;;;;;;6739698;88;20750;-77
2022/11/11 17:29:32;;;;;;;1999.90;999.90;;;12.10;99.90;;;;;;6738525;88;20230;-78
2022/11/11 17:39:32;;;;;;;1999.90;999.90;;;11.80;99.90;;;;;;6746486;88;20326;-78
2022/11/11 17:49:33;;;;;;;1999.90;999.90;;;11.80;99.90;;;;;;6747138;88;20184;-77
2022/11/11 17:59:33;;;;;;;1999.90;999.90;;;11.70;99.90;;;;;;6740973;88;20301;-77
2022/11/11 18:09:34;;;;;;;1999.90;999.90;;;11.40;99.90;;;;;;6744034;88;20714;-77
2022/11/11 18:19:35;;;;;;;1999.90;999.90;;;11.30;99.90;;;;;;6748070;88;20298;-78
2022/11/11 18:29:36;;;;;;;1999.90;999.90;;;11.30;99.90;;;;;;6745167;87;20307;-77
2022/11/11 18:39:37;;;;;;;1999.90;999.90;;;11.10;99.90;;;;;;6696416;78;20185;-79
2022/11/11 18:49:37;;;;;;;1999.90;999.90;;;11.10;99.90;;;;;;6686115;88;20220;-80
2022/11/11 18:59:38;;;;;;;1999.90;999.90;;;11.10;99.90;;;;;;6687423;89;20187;-79
2022/11/11 19:09:38;;;;;;;1999.90;999.90;;;11.00;99.90;;;;;;6683287;89;20693;-78
2022/11/11 19:19:39;;;;;;;1999.90;999.90;;;11.00;99.90;;;;;;6685649;89;20692;-78
2022/11/11 19:29:39;;;;;;;1999.90;999.90;;;10.90;99.90;;;;;;6685726;89;20246;-78
2022/11/11 19:39:41;;;;;;;1999.90;999.90;;;10.80;99.90;;;;;;6685765;89;20209;-77
2022/11/11 19:49:42;;;;;;;1999.90;999.90;;;10.70;99.90;;;;;;6685737;89;20260;-78
2022/11/11 19:59:42;;;;;;;1999.90;999.90;;;10.50;99.90;;;;;;6685924;88;20190;-78
2022/11/11 20:09:43;;;;;;;1999.90;999.90;;;10.40;99.90;;;;;;6683244;89;20577;-80
2022/11/11 20:19:43;;;;;;;1999.90;999.90;;;10.20;99.90;;;;;;6689411;89;20313;-80
2022/11/11 20:29:45;;;;;;;1999.90;999.90;;;10.00;99.90;;;;;;6689685;89;20728;-80
2022/11/11 20:39:46;;;;;;;1999.90;999.90;;;9.70;99.90;;;;;;6671583;89;20208;-80
2022/11/11 20:49:46;;;;;;;1999.90;999.90;;;9.70;99.90;;;;;;6674578;89;20199;-79
2022/11/11 20:59:47;;;;;;;1999.90;999.90;;;9.60;99.90;;;;;;6675011;89;20698;-79
2022/11/11 21:09:47;;;;;;;1999.90;999.90;;;9.50;99.90;;;;;;6684368;88;20210;-79
2022/11/11 21:19:48;;;;;;;1999.90;999.90;;;9.50;99.90;;;;;;6683071;89;20778;-80
2022/11/11 21:29:48;;;;;;;1999.90;999.90;;;9.60;99.90;;;;;;6682812;89;20203;-80
2022/11/11 21:39:49;;;;;;;1999.90;999.90;;;9.50;99.90;;;;;;6682998;89;20702;-79
2022/11/11 21:49:50;;;;;;;1999.90;999.90;;;9.50;99.90;;;;;;6685363;88;20752;-80
2022/11/11 21:59:50;;;;;;;1999.90;999.90;;;9.50;99.90;;;;;;6684654;88;20253;-80
2022/11/11 22:09:50;;;;;;;1999.90;999.90;;;9.30;99.90;;;;;;6684167;88;20675;-80
2022/11/11 22:19:51;;;;;;;1999.90;999.90;;;9.50;99.90;;;;;;6683670;88;20197;-80
2022/11/11 22:29:52;;;;;;;1999.90;999.90;;;9.30;99.90;;;;;;6680970;88;20211;-78
2022/11/11 22:39:52;;;;;;;1999.90;999.90;;;9.30;99.90;;;;;;6678942;88;20211;-78
2022/11/11 22:49:53;;;;;;;1999.90;999.90;;;9.30;99.90;;;;;;6674281;89;20609;-78
2022/11/11 22:59:54;;;;;;;1999.90;999.90;;;9.20;99.90;;;;;;6681728;89;20644;-79
2022/11/11 23:09:54;;;;;;;1999.90;999.90;;;9.20;99.90;;;;;;6676425;89;20698;-79
2022/11/11 23:19:54;;;;;;;1999.90;999.90;;;9.00;99.90;;;;;;6678879;88;20202;-79
2022/11/11 23:29:55;;;;;;;1999.90;999.90;;;8.70;99.90;;;;;;6679513;88;20377;-78
2022/11/11 23:39:55;;;;;;;1999.90;999.90;;;8.30;99.90;;;;;;6683473;88;20228;-79
2022/11/11 23:49:56;;;;;;;1999.90;999.90;;;8.10;99.90;;;;;;6680914;88;20668;-78
2022/11/11 23:59:56;;;;;;;1999.90;999.90;;;7.90;99.90;;;;;;6663606;89;20203;-78
